createdAt,value
2022-11-25T00:00:12.208Z,69.90
2022-11-25T00:02:45.372Z,61.03
2022-11-25T00:05:12.445Z,61.05
2022-11-25T00:07:39.541Z,60.88
2022-11-25T00:10:07.445Z,57.47
2022-11-25T00:12:34.608Z,55.22
2022-11-25T00:15:01.617Z,53.15
2022-11-25T00:17:28.511Z,62.20
2022-11-25T00:19:55.525Z,59.33
2022-11-25T00:22:22.436Z,57.70
2022-11-25T00:24:49.368Z,55.13
2022-11-25T00:27:16.210Z,54.65
2022-11-25T00:29:43.169Z,54.78
2022-11-25T00:32:10.162Z,51.40
2022-11-25T00:34:37.298Z,48.20
2022-11-25T00:37:04.519Z,42.58
2022-11-25T00:39:31.466Z,44.50
2022-11-25T00:42:16.985Z,41.30
2022-11-25T00:44:43.932Z,39.35
2022-11-25T00:47:13.910Z,43.78
2022-11-25T00:49:43.447Z,39.42
2022-11-25T00:52:14.276Z,38.53
2022-11-25T00:54:41.193Z,43.67
2022-11-25T00:57:08.389Z,39.53
2022-11-25T00:59:35.631Z,37.67
2022-11-25T01:02:04.199Z,36.90
2022-11-25T01:04:31.210Z,37.45
2022-11-25T01:07:00.329Z,37.42
2022-11-25T01:09:27.822Z,36.30
2022-11-25T01:11:54.849Z,35.08
2022-11-25T01:14:22.552Z,34.08
2022-11-25T01:16:50.459Z,36.45
2022-11-25T01:19:18.764Z,37.42
2022-11-25T01:21:45.725Z,35.05
2022-11-25T01:24:14.477Z,37.90
2022-11-25T01:26:41.944Z,38.17
2022-11-25T01:29:14.500Z,34.05
2022-11-25T01:31:41.973Z,33.90
2022-11-25T01:34:24.884Z,34.75
2022-11-25T01:36:51.838Z,36.65
2022-11-25T01:39:22.725Z,38.08
2022-11-25T01:41:51.512Z,38.30
2022-11-25T01:44:20.702Z,37.80
2022-11-25T01:47:18.537Z,35.42
2022-11-25T01:49:51.522Z,33.10
2022-11-25T01:52:38.978Z,30.67
2022-11-25T01:55:10.887Z,29.73
2022-11-25T01:57:39.186Z,35.70
2022-11-25T02:00:08.878Z,34.63
2022-11-25T02:02:36.342Z,34.90
2022-11-25T02:05:07.570Z,34.75
2022-11-25T02:07:38.131Z,31.38
2022-11-25T02:10:11.647Z,37.17
2022-11-25T02:12:40.388Z,37.30
2022-11-25T02:15:08.474Z,34.63
2022-11-25T02:17:35.603Z,34.08
2022-11-25T02:20:05.935Z,33.80
2022-11-25T02:22:45.065Z,32.90
2022-11-25T02:25:16.563Z,30.88
2022-11-25T02:27:45.155Z,35.35
2022-11-25T02:30:12.611Z,32.28
2022-11-25T02:32:47.159Z,30.98
2022-11-25T02:35:56.831Z,33.40
2022-11-25T02:38:32.908Z,33.63
2022-11-25T02:41:17.235Z,32.90
2022-11-25T02:43:44.691Z,35.22
2022-11-25T02:46:22.195Z,31.95
2022-11-25T02:49:08.296Z,34.90
2022-11-25T02:51:35.669Z,31.70
2022-11-25T02:54:03.085Z,31.33
2022-11-25T02:56:32.753Z,41.05
2022-11-25T02:59:00.023Z,54.05
2022-11-25T03:01:30.046Z,43.90
2022-11-25T03:03:57.380Z,49.22
2022-11-25T03:06:24.493Z,36.58
2022-11-25T03:08:51.561Z,49.10
2022-11-25T03:11:18.518Z,39.13
2022-11-25T03:13:45.464Z,41.67
2022-11-25T03:16:12.905Z,41.45
2022-11-25T03:18:39.890Z,36.55
2022-11-25T03:21:07.827Z,36.25
2022-11-25T03:23:34.807Z,35.50
2022-11-25T03:26:06.357Z,34.50
2022-11-25T03:28:33.310Z,32.65
2022-11-25T03:31:00.232Z,45.88
2022-11-25T03:33:27.435Z,42.42
2022-11-25T03:35:54.418Z,51.28
2022-11-25T03:38:21.368Z,40.97
2022-11-25T03:40:50.624Z,44.03
2022-11-25T03:43:17.520Z,38.72
2022-11-25T03:45:44.545Z,37.75
2022-11-25T03:48:11.554Z,50.78
2022-11-25T03:50:38.522Z,34.65
2022-11-25T03:53:05.418Z,30.98
2022-11-25T03:55:32.779Z,33.13
2022-11-25T03:57:59.739Z,34.15
2022-11-25T04:00:26.997Z,35.83
2022-11-25T04:02:54.012Z,32.15
2022-11-25T04:05:21.055Z,36.20
2022-11-25T04:07:48.041Z,34.78
2022-11-25T04:10:15.156Z,37.17
2022-11-25T04:12:48.040Z,42.95
2022-11-25T04:15:16.829Z,39.53
2022-11-25T04:17:44.234Z,39.47
2022-11-25T04:20:12.559Z,41.92
2022-11-25T04:22:39.543Z,37.00
2022-11-25T04:25:08.015Z,45.00
2022-11-25T04:27:34.944Z,58.83
2022-11-25T04:30:01.899Z,68.88
2022-11-25T04:32:28.809Z,64.45
2022-11-25T04:34:55.994Z,65.70
2022-11-25T04:37:22.949Z,60.83
2022-11-25T04:39:49.977Z,46.90
2022-11-25T04:42:31.932Z,41.63
2022-11-25T04:45:21.365Z,47.00
2022-11-25T04:47:46.957Z,76.53
2022-11-25T04:50:17.392Z,53.70
2022-11-25T04:52:44.424Z,61.53
2022-11-25T04:55:12.073Z,50.67
2022-11-25T04:57:39.038Z,59.58
2022-11-25T05:00:06.738Z,43.63
2022-11-25T05:02:33.735Z,49.33
2022-11-25T05:05:01.155Z,61.30
2022-11-25T05:07:28.990Z,46.95
2022-11-25T05:09:56.566Z,45.50
2022-11-25T05:12:28.737Z,45.92
2022-11-25T05:14:56.521Z,44.42
2022-11-25T05:17:25.681Z,48.20
2022-11-25T05:19:54.700Z,45.10
2022-11-25T05:22:27.609Z,45.47
2022-11-25T05:24:55.188Z,45.05
2022-11-25T05:27:22.683Z,40.97
2022-11-25T05:29:55.509Z,46.38
2022-11-25T05:32:23.035Z,73.68
2022-11-25T05:34:49.974Z,60.58
2022-11-25T05:37:21.275Z,50.45
2022-11-25T05:39:51.354Z,50.60
2022-11-25T05:42:18.495Z,46.50
2022-11-25T05:44:45.574Z,49.83
2022-11-25T05:47:12.535Z,46.15
2022-11-25T05:49:39.437Z,42.10
2022-11-25T05:52:06.420Z,43.97
2022-11-25T05:54:33.945Z,43.92
2022-11-25T05:57:01.018Z,43.78
2022-11-25T05:59:27.962Z,43.65
2022-11-25T06:01:55.704Z,42.25
2022-11-25T06:04:22.725Z,40.25
2022-11-25T06:06:49.675Z,44.90
2022-11-25T06:09:16.699Z,52.65
2022-11-25T06:11:46.414Z,72.10
2022-11-25T06:14:13.341Z,76.72
2022-11-25T06:16:41.499Z,91.13
2022-11-25T06:19:08.469Z,98.28
2022-11-25T06:21:35.547Z,89.53
2022-11-25T06:24:02.869Z,51.42
2022-11-25T06:26:29.886Z,38.47
2022-11-25T06:28:57.204Z,43.70
2022-11-25T06:31:26.945Z,60.30
2022-11-25T06:33:55.126Z,71.17
2022-11-25T06:36:23.045Z,48.65
2022-11-25T06:38:52.843Z,36.53
2022-11-25T06:41:20.940Z,35.15
2022-11-25T06:43:47.941Z,33.33
2022-11-25T06:46:19.878Z,32.03
2022-11-25T06:48:53.470Z,31.45
2022-11-25T06:51:20.573Z,30.65
2022-11-25T06:53:47.769Z,30.08
2022-11-25T06:56:24.363Z,29.70
2022-11-25T06:58:52.623Z,34.65
2022-11-25T07:01:22.341Z,33.63
2022-11-25T07:03:52.136Z,54.50
2022-11-25T07:06:20.044Z,52.97
2022-11-25T07:08:47.303Z,70.53
2022-11-25T07:11:17.324Z,53.05
2022-11-25T07:13:44.746Z,40.03
2022-11-25T07:16:12.173Z,32.97
2022-11-25T07:18:39.894Z,31.88
2022-11-25T07:21:17.086Z,39.45
2022-11-25T07:23:45.301Z,44.33
2022-11-25T07:26:13.308Z,39.58
2022-11-25T07:28:40.732Z,36.95
2022-11-25T07:34:00.760Z,34.70
2022-11-25T07:36:28.660Z,39.83
2022-11-25T07:38:55.942Z,36.28
2022-11-25T07:41:25.868Z,34.40
2022-11-25T07:43:58.099Z,32.42
2022-11-25T07:46:27.314Z,33.38
2022-11-25T07:49:01.184Z,32.50
2022-11-25T07:51:36.476Z,32.90
2022-11-25T07:54:05.847Z,35.55
2022-11-25T07:56:35.328Z,35.05
2022-11-25T07:59:02.770Z,35.60
2022-11-25T08:01:31.803Z,34.72
2022-11-25T08:03:58.993Z,42.65
2022-11-25T08:06:28.287Z,34.70
2022-11-25T08:08:57.426Z,36.40
2022-11-25T08:11:29.604Z,46.88
2022-11-25T08:13:57.348Z,53.72
2022-11-25T08:16:27.754Z,40.85
2022-11-25T08:18:56.170Z,40.75
2022-11-25T08:21:23.269Z,37.72
2022-11-25T08:23:52.706Z,32.90
2022-11-25T08:26:24.297Z,33.55
2022-11-25T08:28:51.364Z,33.05
2022-11-25T08:31:21.339Z,33.67
2022-11-25T08:33:48.809Z,32.88
2022-11-25T08:36:16.770Z,36.58
2022-11-25T08:38:45.008Z,36.10
2022-11-25T08:41:29.122Z,38.58
2022-11-25T08:43:58.229Z,34.25
2022-11-25T08:46:28.202Z,40.47
2022-11-25T08:48:55.361Z,42.60
2022-11-25T08:51:25.022Z,42.63
2022-11-25T08:53:52.333Z,40.42
2022-11-25T08:56:25.743Z,39.13
2022-11-25T08:58:54.828Z,41.10
2022-11-25T09:01:22.837Z,43.70
2022-11-25T09:03:52.384Z,41.45
2022-11-25T09:06:20.568Z,41.17
2022-11-25T09:08:48.001Z,43.47
2022-11-25T09:11:15.693Z,54.97
2022-11-25T09:13:42.934Z,44.03
2022-11-25T09:16:10.191Z,42.38
2022-11-25T09:18:37.598Z,48.13
2022-11-25T09:21:12.623Z,50.97
2022-11-25T09:23:40.174Z,40.25
2022-11-25T09:26:08.136Z,38.05
2022-11-25T09:28:35.895Z,40.22
2022-11-25T09:31:12.025Z,41.33
2022-11-25T09:33:39.017Z,42.95
2022-11-25T09:36:06.681Z,42.63
2022-11-25T09:38:35.664Z,48.58
2022-11-25T09:41:10.920Z,46.13
2022-11-25T09:44:41.020Z,46.13
2022-11-25T09:47:20.925Z,38.20
2022-11-25T09:50:05.515Z,39.93
2022-11-25T09:53:03.549Z,37.85
2022-11-25T09:55:35.795Z,41.13
2022-11-25T09:58:22.768Z,40.72
2022-11-25T10:00:51.565Z,42.97
2022-11-25T10:03:46.945Z,44.67
2022-11-25T10:06:18.565Z,41.00
2022-11-25T10:08:48.946Z,40.78
2022-11-25T10:11:25.072Z,47.40
2022-11-25T10:14:02.816Z,49.40
2022-11-25T10:16:34.995Z,50.95
2022-11-25T10:19:16.891Z,49.97
2022-11-25T10:21:43.852Z,49.17
2022-11-25T10:24:14.954Z,49.60
2022-11-25T10:26:46.048Z,52.22
2022-11-25T10:29:31.874Z,45.92
2022-11-25T10:32:12.605Z,49.42
2022-11-25T10:35:00.951Z,47.03
2022-11-25T10:37:31.832Z,46.78
2022-11-25T10:39:58.825Z,47.55
2022-11-25T10:42:27.856Z,43.22
2022-11-25T10:44:55.288Z,46.60
2022-11-25T10:47:42.104Z,52.55
2022-11-25T10:50:48.831Z,46.80
2022-11-25T10:53:18.479Z,57.53
2022-11-25T10:56:12.918Z,47.10
2022-11-25T10:58:41.135Z,42.70
2022-11-25T11:01:14.395Z,43.72
2022-11-25T11:03:46.926Z,46.67
2022-11-25T11:06:36.850Z,56.30
2022-11-25T11:09:05.039Z,54.45
2022-11-25T11:11:32.863Z,53.75
2022-11-25T11:14:13.553Z,51.30
2022-11-25T11:16:45.831Z,46.40
2022-11-25T11:19:30.163Z,53.00
2022-11-25T11:21:58.029Z,54.13
2022-11-25T11:24:35.965Z,51.72
2022-11-25T11:27:18.545Z,54.20
2022-11-25T11:29:45.496Z,59.88
2022-11-25T11:32:25.701Z,78.20
2022-11-25T11:35:20.513Z,96.95
2022-11-25T11:37:53.315Z,65.63
2022-11-25T11:40:31.760Z,56.13
2022-11-25T11:43:26.634Z,55.00
2022-11-25T11:46:04.663Z,45.58
2022-11-25T11:48:57.144Z,45.03
2022-11-25T11:51:24.060Z,48.60
2022-11-25T11:53:51.083Z,46.58
2022-11-25T11:56:55.588Z,48.95
2022-11-25T11:59:47.044Z,50.40
2022-11-25T12:02:23.536Z,49.78
2022-11-25T12:05:00.781Z,50.88
2022-11-25T12:07:34.221Z,52.92
2022-11-25T12:10:11.082Z,53.15
2022-11-25T12:13:01.292Z,56.40
2022-11-25T12:15:39.572Z,50.50
2022-11-25T12:18:41.625Z,52.83
2022-11-25T12:21:28.828Z,38.67
2022-11-25T12:24:05.103Z,38.40
2022-11-25T12:26:40.366Z,41.03
2022-11-25T12:29:12.893Z,38.38
2022-11-25T12:31:43.013Z,39.70
2022-11-25T12:34:34.548Z,43.67
2022-11-25T12:37:14.801Z,43.72
2022-11-25T12:40:08.504Z,45.13
2022-11-25T12:42:37.301Z,42.40
2022-11-25T12:45:25.202Z,43.55
2022-11-25T12:47:52.934Z,42.20
2022-11-25T12:50:34.997Z,45.90
2022-11-25T12:53:41.203Z,45.53
2022-11-25T12:56:17.444Z,43.20
2022-11-25T12:59:27.864Z,44.40
2022-11-25T13:02:14.608Z,47.00
2022-11-25T13:05:39.516Z,42.33
2022-11-25T13:11:18.291Z,41.70
2022-11-25T13:13:57.072Z,43.97
2022-11-25T13:16:24.852Z,47.72
2022-11-25T13:18:52.530Z,49.75
2022-11-25T13:21:19.913Z,53.22
2022-11-25T13:24:10.120Z,47.97
2022-11-25T13:26:47.588Z,51.90
2022-11-25T13:29:14.502Z,55.65
2022-11-25T13:32:03.176Z,53.40
2022-11-25T13:34:37.192Z,60.38
2022-11-25T13:37:36.595Z,60.05
2022-11-25T13:40:31.754Z,53.92
2022-11-25T13:43:00.781Z,51.85
2022-11-25T13:45:42.505Z,49.92
2022-11-25T13:48:28.867Z,44.50
2022-11-25T13:51:32.683Z,47.22
2022-11-25T13:54:05.411Z,54.20
2022-11-25T13:56:32.902Z,46.70
2022-11-25T13:59:08.954Z,45.47
2022-11-25T14:01:36.876Z,59.55
2022-11-25T14:04:36.352Z,50.33
2022-11-25T14:07:50.257Z,55.03
2022-11-25T14:10:57.859Z,56.45
2022-11-25T14:13:41.529Z,59.05
2022-11-25T14:16:11.389Z,53.15
2022-11-25T14:22:12.057Z,47.78
2022-11-25T14:24:42.274Z,48.75
2022-11-25T14:27:18.898Z,45.88
2022-11-25T14:30:10.650Z,47.13
2022-11-25T14:33:14.219Z,48.25
2022-11-25T14:35:45.825Z,49.60
2022-11-25T14:38:51.482Z,60.25
2022-11-25T14:41:21.587Z,53.33
2022-11-25T14:43:54.072Z,57.47
2022-11-25T14:46:25.650Z,56.85
2022-11-25T14:48:58.201Z,71.60
2022-11-25T14:51:26.723Z,88.63
2022-11-25T14:53:53.998Z,83.78
2022-11-25T14:56:30.276Z,67.95
2022-11-25T14:58:58.372Z,63.85
2022-11-25T15:01:30.883Z,59.25
2022-11-25T15:04:02.799Z,56.75
2022-11-25T15:06:35.457Z,49.83
2022-11-25T15:09:02.749Z,51.30
2022-11-25T15:11:32.346Z,52.65
2022-11-25T15:14:03.528Z,65.30
2022-11-25T15:16:32.292Z,65.72
2022-11-25T15:19:01.562Z,62.78
2022-11-25T15:21:40.818Z,57.45
2022-11-25T15:24:28.867Z,56.00
2022-11-25T15:26:58.834Z,58.50
2022-11-25T15:29:26.737Z,60.40
2022-11-25T15:31:54.307Z,57.80
2022-11-25T15:34:22.901Z,63.38
2022-11-25T15:36:54.183Z,62.08
2022-11-25T15:39:21.994Z,57.22
2022-11-25T15:42:04.313Z,67.65
2022-11-25T15:44:34.287Z,87.68
2022-11-25T15:47:05.506Z,110.20
2022-11-25T15:49:34.010Z,64.20
2022-11-25T15:52:08.769Z,78.85
2022-11-25T15:54:41.318Z,69.07
2022-11-25T15:57:43.748Z,64.82
2022-11-25T16:00:16.985Z,129.45
2022-11-25T16:02:44.021Z,158.00
2022-11-25T16:05:14.378Z,98.00
2022-11-25T16:07:50.719Z,76.38
2022-11-25T16:10:23.713Z,99.10
2022-11-25T16:13:29.218Z,115.97
2022-11-25T16:16:15.392Z,108.30
2022-11-25T16:19:02.624Z,119.68
2022-11-25T16:21:35.737Z,133.30
2022-11-25T16:24:05.780Z,80.85
2022-11-25T16:26:35.901Z,72.13
2022-11-25T16:29:14.132Z,76.70
2022-11-25T16:31:41.879Z,78.72
2022-11-25T16:34:20.430Z,78.53
2022-11-25T16:36:47.411Z,77.55
2022-11-25T16:39:14.423Z,67.80
2022-11-25T16:41:42.164Z,75.72
2022-11-25T16:44:20.037Z,69.28
2022-11-25T16:46:47.214Z,74.72
2022-11-25T16:49:15.787Z,78.53
2022-11-25T16:51:43.446Z,79.20
2022-11-25T16:54:10.886Z,77.95
2022-11-25T16:56:40.588Z,70.70
2022-11-25T16:59:10.297Z,67.05
2022-11-25T17:01:37.268Z,86.57
2022-11-25T17:04:04.224Z,86.40
2022-11-25T17:06:32.986Z,79.35
2022-11-25T17:08:59.919Z,69.55
2022-11-25T17:11:32.865Z,73.88
2022-11-25T17:14:02.954Z,69.32
2022-11-25T17:16:30.479Z,68.85
2022-11-25T17:18:59.548Z,69.38
2022-11-25T17:21:30.017Z,77.93
2022-11-25T17:24:02.929Z,73.40
2022-11-25T17:26:38.643Z,68.07
2022-11-25T17:29:08.387Z,72.88
2022-11-25T17:31:38.611Z,70.65
2022-11-25T17:34:05.677Z,76.57
2022-11-25T17:36:32.633Z,76.13
2022-11-25T17:38:59.652Z,69.78
2022-11-25T17:41:29.856Z,73.53
2022-11-25T17:43:56.821Z,82.30
2022-11-25T17:46:28.901Z,69.05
2022-11-25T17:48:55.877Z,74.40
2022-11-25T17:51:22.806Z,77.82
2022-11-25T17:53:49.713Z,66.38
2022-11-25T17:56:29.969Z,67.38
2022-11-25T17:59:01.560Z,78.15
2022-11-25T18:01:28.567Z,76.05
2022-11-25T18:03:55.750Z,71.70
2022-11-25T18:06:24.086Z,66.63
2022-11-25T18:08:51.571Z,66.90
2022-11-25T18:11:19.851Z,60.90
2022-11-25T18:13:47.889Z,64.63
2022-11-25T18:16:19.118Z,68.25
2022-11-25T18:18:46.713Z,69.20
2022-11-25T18:21:13.652Z,67.65
2022-11-25T18:23:40.629Z,67.28
2022-11-25T18:26:10.956Z,72.38
2022-11-25T18:28:38.061Z,65.70
2022-11-25T18:31:06.587Z,71.70
2022-11-25T18:33:33.778Z,65.00
2022-11-25T18:36:00.698Z,71.50
2022-11-25T18:38:27.826Z,75.22
2022-11-25T18:40:55.289Z,72.40
2022-11-25T18:43:23.716Z,87.93
2022-11-25T18:45:51.228Z,104.25
2022-11-25T18:48:20.362Z,76.10
2022-11-25T18:50:48.141Z,75.25
2022-11-25T18:53:15.313Z,64.40
2022-11-25T18:55:42.785Z,76.07
2022-11-25T18:58:16.599Z,77.75
2022-11-25T19:00:44.271Z,78.60
2022-11-25T19:03:18.312Z,76.03
2022-11-25T19:05:45.755Z,85.90
2022-11-25T19:08:12.679Z,74.07
2022-11-25T19:10:41.375Z,108.15
2022-11-25T19:13:18.717Z,75.65
2022-11-25T19:15:46.155Z,66.88
2022-11-25T19:18:16.792Z,68.32
2022-11-25T19:20:43.744Z,66.82
2022-11-25T19:23:22.987Z,77.53
2022-11-25T19:25:50.186Z,68.70
2022-11-25T19:28:17.639Z,74.45
2022-11-25T19:30:46.322Z,73.28
2022-11-25T19:33:21.954Z,77.93
2022-11-25T19:35:48.889Z,73.68
2022-11-25T19:38:21.736Z,79.63
2022-11-25T19:40:49.742Z,82.63
2022-11-25T19:43:16.799Z,62.05
2022-11-25T19:45:44.443Z,70.45
2022-11-25T19:48:18.116Z,65.30
2022-11-25T19:50:47.049Z,70.18
2022-11-25T19:53:20.550Z,72.05
2022-11-25T19:55:48.190Z,72.82
2022-11-25T19:58:15.900Z,70.13
2022-11-25T20:00:43.636Z,70.38
2022-11-25T20:03:23.104Z,65.78
2022-11-25T20:05:51.826Z,73.78
2022-11-25T20:08:29.126Z,66.93
2022-11-25T20:10:57.221Z,68.07
2022-11-25T20:13:26.375Z,72.03
2022-11-25T20:15:54.234Z,71.38
2022-11-25T20:18:23.257Z,67.07
2022-11-25T20:20:57.196Z,78.25
2022-11-25T20:23:44.049Z,86.65
2022-11-25T20:26:27.651Z,82.32
2022-11-25T20:28:54.749Z,66.20
2022-11-25T20:31:22.156Z,77.97
2022-11-25T20:33:50.045Z,83.25
2022-11-25T20:36:19.517Z,83.55
2022-11-25T20:38:54.812Z,82.80
2022-11-25T20:41:27.667Z,94.03
2022-11-25T20:43:55.901Z,91.95
2022-11-25T20:46:25.267Z,87.97
2022-11-25T20:48:54.542Z,81.57
2022-11-25T20:51:23.291Z,78.53
2022-11-25T20:53:52.928Z,81.40
2022-11-25T20:56:22.108Z,83.80
2022-11-25T20:58:49.228Z,73.40
2022-11-25T21:01:17.297Z,84.72
2022-11-25T21:03:45.945Z,83.40
2022-11-25T21:06:21.542Z,92.85
2022-11-25T21:08:50.750Z,88.75
2022-11-25T21:11:18.569Z,83.32
2022-11-25T21:13:46.192Z,90.65
2022-11-25T21:16:13.526Z,81.80
2022-11-25T21:18:41.630Z,75.65
2022-11-25T21:21:29.539Z,85.57
2022-11-25T21:23:56.758Z,82.95
2022-11-25T21:26:25.911Z,89.28
2022-11-25T21:28:53.757Z,84.18
2022-11-25T21:31:24.674Z,78.15
2022-11-25T21:33:53.813Z,86.55
2022-11-25T21:36:23.036Z,97.72
2022-11-25T21:38:52.298Z,100.72
2022-11-25T21:41:19.797Z,93.43
2022-11-25T21:43:49.377Z,87.70
2022-11-25T21:46:21.793Z,76.88
2022-11-25T21:48:48.762Z,86.88
2022-11-25T21:51:21.995Z,92.10
2022-11-25T21:53:51.137Z,91.60
2022-11-25T21:56:27.256Z,88.03
2022-11-25T21:58:55.451Z,91.13
2022-11-25T22:01:25.386Z,73.18
2022-11-25T22:03:52.618Z,79.97
2022-11-25T22:06:22.945Z,91.88
2022-11-25T22:08:50.428Z,90.90
2022-11-25T22:11:20.132Z,92.72
2022-11-25T22:13:48.791Z,95.43
2022-11-25T22:16:18.142Z,95.32
2022-11-25T22:18:45.569Z,87.82
2022-11-25T22:21:14.076Z,86.45
2022-11-25T22:23:43.284Z,83.30
2022-11-25T22:26:33.961Z,84.25
2022-11-25T22:29:01.943Z,83.97
2022-11-25T22:31:29.046Z,84.75
2022-11-25T22:33:56.301Z,97.65
2022-11-25T22:36:26.309Z,101.13
2022-11-25T22:38:53.459Z,95.10
2022-11-25T22:41:20.545Z,88.15
2022-11-25T22:43:50.670Z,96.55
2022-11-25T22:46:18.288Z,89.88
2022-11-25T22:48:45.433Z,83.13
2022-11-25T22:51:17.438Z,85.13
2022-11-25T22:53:44.534Z,89.75
2022-11-25T22:56:19.250Z,78.57
2022-11-25T22:58:46.674Z,79.78
2022-11-25T23:01:15.130Z,83.57
2022-11-25T23:03:43.916Z,80.18
2022-11-25T23:06:13.182Z,82.10
2022-11-25T23:08:40.788Z,88.15
2022-11-25T23:11:10.241Z,86.78
2022-11-25T23:13:37.616Z,81.95
2022-11-25T23:16:05.334Z,89.53
2022-11-25T23:18:45.328Z,86.32
2022-11-25T23:21:20.822Z,85.20
2022-11-25T23:23:47.847Z,91.60
2022-11-25T23:28:56.034Z,83.47
2022-11-25T23:31:25.941Z,84.05
2022-11-25T23:33:53.004Z,70.33
2022-11-25T23:36:33.928Z,79.63
2022-11-25T23:39:02.450Z,84.13
2022-11-25T23:41:31.324Z,85.05
2022-11-25T23:44:03.538Z,91.22
2022-11-25T23:46:34.084Z,99.30
2022-11-25T23:49:02.695Z,89.10
2022-11-25T23:51:30.253Z,72.05
2022-11-25T23:53:58.035Z,83.97
2022-11-25T23:56:26.386Z,81.45
2022-11-25T23:58:53.380Z,79.65
